Time;durP1;ratioP1;P1;durP2;ratioP2;P2;SDS_P1;SDS_P2;PMS_P1;PMS_P2;Temp;Humidity;BMP_temperature;BMP_pressure;BME280_temperature;BME280_humidity;BME280_pressure;Samples;Min_cycle;Max_cycle;Signal;HPM_P1;HPM_P2
2023/01/12 00:00:53;;;;;;;13.18;3.25;;;8.90;99.90;;;;;;4141079;28;20397;-71
2023/01/12 00:02:53;;;;;;;13.48;2.60;;;9.00;99.90;;;;;;4139987;28;20038;-72
2023/01/12 00:04:54;;;;;;;12.07;2.60;;;9.00;99.90;;;;;;4141512;28;20102;-71
2023/01/12 00:06:54;;;;;;;12.80;2.50;;;9.00;99.90;;;;;;4140674;28;20030;-71
2023/01/12 00:08:55;;;;;;;7.30;1.92;;;9.00;99.90;;;;;;4143892;28;20033;-71
2023/01/12 00:10:55;;;;;;;12.20;2.45;;;9.00;99.90;;;;;;4148205;28;20053;-72
2023/01/12 00:12:57;;;;;;;11.80;2.40;;;9.00;99.90;;;;;;4145088;28;20041;-71
2023/01/12 00:14:57;;;;;;;14.10;2.95;;;9.00;99.90;;;;;;4145190;28;20410;-71
2023/01/12 00:16:58;;;;;;;12.25;1.95;;;9.00;99.90;;;;;;4146427;28;20035;-71
2023/01/12 00:19:11;;;;;;;11.50;2.63;;;9.00;99.90;;;;;;4147960;28;20045;-71
2023/01/12 00:21:11;;;;;;;;;;;9.00;99.90;;;;;;4145226;28;20084;-70
2023/01/12 00:23:12;;;;;;;15.45;3.65;;;9.00;99.90;;;;;;4145073;28;19913;-71
2023/01/12 00:25:13;;;;;;;9.32;2.05;;;9.00;99.90;;;;;;4144222;28;20042;-71
2023/01/12 00:27:16;;;;;;;8.68;2.00;;;9.00;99.90;;;;;;4146786;28;20612;-71
2023/01/12 00:29:17;;;;;;;10.80;2.05;;;9.10;99.90;;;;;;4146643;28;20041;-71
2023/01/12 00:31:18;;;;;;;8.70;2.17;;;9.10;99.90;;;;;;4143092;28;20117;-71
2023/01/12 00:33:19;;;;;;;11.45;2.15;;;9.10;99.90;;;;;;4144642;28;20128;-71
2023/01/12 00:35:19;;;;;;;8.55;2.22;;;9.10;99.90;;;;;;4143916;28;20061;-72
2023/01/12 00:37:20;;;;;;;8.45;2.22;;;9.10;99.90;;;;;;4151311;28;20038;-71
2023/01/12 00:39:21;;;;;;;9.95;2.63;;;9.10;99.90;;;;;;4143459;28;20030;-71
2023/01/12 00:46:00;;;;;;;7.53;2.20;;;9.10;99.90;;;;;;4143392;28;20037;-71
2023/01/12 00:48:00;;;;;;;7.93;1.60;;;9.10;99.90;;;;;;4151351;28;20040;-71
2023/01/12 00:50:01;;;;;;;12.18;2.25;;;9.10;99.90;;;;;;4150067;28;20058;-71
2023/01/12 00:52:03;;;;;;;9.43;2.17;;;9.10;99.90;;;;;;4144905;28;20037;-71
2023/01/12 00:54:06;;;;;;;7.27;2.10;;;9.20;99.90;;;;;;4145440;28;20481;-71
2023/01/12 00:56:07;;;;;;;8.90;2.22;;;9.10;99.90;;;;;;4144828;28;20485;-71
2023/01/12 00:58:08;;;;;;;11.90;2.45;;;9.10;99.90;;;;;;4144835;28;20037;-71
2023/01/12 01:00:09;;;;;;;8.68;2.80;;;9.20;99.90;;;;;;4141238;28;20117;-72
2023/01/12 01:02:11;;;;;;;8.95;2.60;;;9.20;99.90;;;;;;4144758;28;20509;-71
2023/01/12 01:04:11;;;;;;;9.57;2.20;;;9.20;99.90;;;;;;4144677;28;20823;-70
2023/01/12 01:06:12;;;;;;;10.25;1.85;;;9.20;99.90;;;;;;4145154;28;20037;-70
2023/01/12 01:08:12;;;;;;;6.47;1.83;;;9.20;99.90;;;;;;4149107;28;20104;-70
2023/01/12 01:10:15;;;;;;;9.02;2.30;;;9.20;99.90;;;;;;4121537;28;20117;-71
2023/01/12 01:12:16;;;;;;;11.13;2.42;;;9.20;99.90;;;;;;4144970;28;20141;-70
2023/01/12 01:14:17;;;;;;;9.32;2.60;;;9.20;99.90;;;;;;4144746;28;20113;-70
2023/01/12 01:16:17;;;;;;;8.48;2.05;;;9.20;99.90;;;;;;4143480;28;20053;-71
2023/01/12 01:18:18;;;;;;;7.28;1.75;;;9.20;99.90;;;;;;4145156;28;20053;-71
2023/01/12 01:20:18;;;;;;;12.48;2.58;;;9.20;99.90;;;;;;4143737;28;20041;-71
2023/01/12 01:22:19;;;;;;;12.25;2.55;;;9.20;99.90;;;;;;4145194;28;20042;-71
2023/01/12 01:24:20;;;;;;;11.20;1.77;;;9.20;99.90;;;;;;4143363;28;20030;-71
2023/01/12 01:26:22;;;;;;;14.55;3.28;;;9.20;99.90;;;;;;4144071;28;20046;-71
2023/01/12 01:28:23;;;;;;;12.38;2.75;;;9.20;99.90;;;;;;4144544;28;20026;-71
2023/01/12 01:30:23;;;;;;;19.33;2.78;;;9.20;99.90;;;;;;4143989;28;20040;-72
2023/01/12 01:32:24;;;;;;;6.35;2.38;;;9.30;99.90;;;;;;4146100;28;20030;-71
2023/01/12 01:34:24;;;;;;;11.52;2.50;;;9.20;99.90;;;;;;4145157;28;20034;-71
2023/01/12 01:36:25;;;;;;;11.70;3.00;;;9.20;99.90;;;;;;4144033;28;20084;-71
2023/01/12 01:38:26;;;;;;;14.02;2.38;;;9.20;99.90;;;;;;4144749;28;20356;-71
2023/01/12 01:40:27;;;;;;;9.88;2.10;;;9.30;99.90;;;;;;4153424;28;20390;-70
2023/01/12 01:42:28;;;;;;;15.68;2.78;;;9.30;99.90;;;;;;4145148;28;20072;-71
2023/01/12 01:44:28;;;;;;;12.60;2.92;;;9.30;99.90;;;;;;4143180;28;20033;-68
2023/01/12 01:46:58;;;;;;;16.05;3.00;;;9.30;99.90;;;;;;4143663;28;20038;-70
2023/01/12 01:49:21;;;;;;;10.13;2.42;;;9.30;99.90;;;;;;4111937;28;20063;-69
2023/01/12 01:51:22;;;;;;;11.23;2.70;;;9.30;99.90;;;;;;4143850;28;20030;-71
2023/01/12 01:53:25;;;;;;;14.98;3.00;;;9.30;99.90;;;;;;4143495;28;20389;-71
2023/01/12 01:55:32;;;;;;;12.75;2.70;;;9.30;99.90;;;;;;4144391;28;20030;-71
2023/01/12 01:57:43;;;;;;;9.65;2.17;;;9.30;99.90;;;;;;4127061;28;20038;-71
2023/01/12 01:59:55;;;;;;;8.57;2.15;;;9.30;99.90;;;;;;4142461;28;20540;-71
2023/01/12 02:01:56;;;;;;;9.57;2.70;;;9.30;99.90;;;;;;4143954;28;20084;-71
2023/01/12 02:03:56;;;;;;;18.15;3.63;;;9.40;99.90;;;;;;4142986;28;20553;-71
2023/01/12 02:05:57;;;;;;;12.20;2.80;;;9.30;99.90;;;;;;4126490;28;20030;-72
2023/01/12 02:08:06;;;;;;;13.98;3.00;;;9.40;99.90;;;;;;4143196;28;20565;-72
2023/01/12 02:10:08;;;;;;;20.48;3.70;;;9.30;99.90;;;;;;4149356;28;20041;-73
2023/01/12 02:17:25;;;;;;;13.23;3.03;;;9.40;99.90;;;;;;4142245;28;20501;-72
2023/01/12 02:19:46;;;;;;;13.50;3.22;;;9.40;99.90;;;;;;4141165;28;20038;-72
2023/01/12 02:22:13;;;;;;;16.20;3.47;;;9.40;99.90;;;;;;4143082;28;20087;-72
2023/01/12 02:24:35;;;;;;;11.70;2.85;;;9.40;99.90;;;;;;4143906;28;20486;-71
2023/01/12 02:27:14;;;;;;;15.23;3.10;;;9.40;99.90;;;;;;4136604;28;20042;-71
2023/01/12 02:29:43;;;;;;;11.95;2.75;;;9.40;99.90;;;;;;4114203;28;20436;-71
2023/01/12 02:35:04;;;;;;;8.38;2.28;;;9.40;99.90;;;;;;4144580;28;20036;-72
2023/01/12 02:37:29;;;;;;;24.60;4.57;;;9.40;99.90;;;;;;4145350;28;20037;-71
2023/01/12 02:39:43;;;;;;;9.70;2.35;;;9.30;99.90;;;;;;4144409;28;20032;-69
2023/01/12 02:45:05;;;;;;;19.77;2.65;;;9.30;99.90;;;;;;4142918;28;20410;-71
2023/01/12 02:47:14;;;;;;;13.20;2.42;;;9.30;99.90;;;;;;4141160;28;20036;-71
2023/01/12 02:49:18;;;;;;;16.60;3.38;;;9.30;99.90;;;;;;4144399;28;20061;-72
2023/01/12 02:51:38;;;;;;;12.80;3.13;;;9.30;99.90;;;;;;4143161;28;20038;-71
2023/01/12 02:53:47;;;;;;;16.08;3.55;;;9.30;99.90;;;;;;4143031;28;20563;-71
2023/01/12 02:55:49;;;;;;;13.95;3.55;;;9.30;99.90;;;;;;4140882;28;20029;-70
2023/01/12 02:57:52;;;;;;;18.08;3.45;;;9.20;99.90;;;;;;4144587;28;20058;-70
2023/01/12 02:59:55;;;;;;;21.77;3.72;;;9.20;99.90;;;;;;4148410;28;20026;-70
2023/01/12 03:02:01;;;;;;;17.58;3.55;;;9.20;99.90;;;;;;4142528;28;21034;-70
2023/01/12 03:04:05;;;;;;;17.08;3.63;;;9.30;99.90;;;;;;4143477;28;20056;-70
2023/01/12 03:06:07;;;;;;;11.60;3.08;;;9.30;99.90;;;;;;4145991;28;20038;-70
2023/01/12 03:08:12;;;;;;;15.45;3.45;;;9.30;99.90;;;;;;4149115;28;20528;-71
2023/01/12 03:10:38;;;;;;;18.55;3.85;;;9.20;99.90;;;;;;4144303;28;20389;-70
2023/01/12 03:12:40;;;;;;;19.98;3.63;;;9.20;99.90;;;;;;4142049;28;20084;-70
2023/01/12 03:14:45;;;;;;;21.15;3.00;;;9.30;99.90;;;;;;4143117;28;20549;-69
2023/01/12 03:16:46;;;;;;;20.55;3.45;;;9.30;99.90;;;;;;4140912;28;20045;-70
2023/01/12 03:19:03;;;;;;;23.30;3.75;;;9.30;99.90;;;;;;4146236;28;20040;-69
2023/01/12 03:21:10;;;;;;;16.17;3.25;;;9.30;99.90;;;;;;4139834;28;20033;-70
2023/01/12 03:23:18;;;;;;;20.10;3.67;;;9.30;99.90;;;;;;4143303;28;20401;-70
2023/01/12 03:25:20;;;;;;;12.27;3.70;;;9.30;99.90;;;;;;4137957;28;20164;-71
2023/01/12 03:27:27;;;;;;;13.82;3.08;;;9.30;99.90;;;;;;4141332;28;20123;-70
2023/01/12 03:29:32;;;;;;;12.70;2.95;;;9.30;99.90;;;;;;4150741;28;20033;-70
2023/01/12 03:31:33;;;;;;;16.10;3.40;;;9.30;99.90;;;;;;4145408;28;20095;-69
2023/01/12 03:33:34;;;;;;;15.45;3.72;;;9.30;99.90;;;;;;4146196;28;20034;-69
2023/01/12 03:35:43;;;;;;;14.32;3.38;;;9.30;99.90;;;;;;4149777;28;20113;-70
2023/01/12 03:37:58;;;;;;;16.58;2.75;;;9.30;99.90;;;;;;4139110;28;20041;-69
2023/01/12 03:40:08;;;;;;;13.75;2.97;;;9.40;99.90;;;;;;4148309;28;20045;-70
2023/01/12 03:42:22;;;;;;;15.23;3.20;;;9.40;99.90;;;;;;4144935;28;20041;-70
2023/01/12 03:44:33;;;;;;;17.85;3.03;;;9.40;99.90;;;;;;4143851;28;20038;-70
2023/01/12 03:46:41;;;;;;;14.80;3.08;;;9.40;99.90;;;;;;4149242;28;20046;-69
2023/01/12 03:49:20;;;;;;;18.63;3.10;;;9.40;99.90;;;;;;4156951;28;20033;-70
2023/01/12 03:51:31;;;;;;;18.05;3.20;;;9.40;99.90;;;;;;4142959;28;20034;-70
2023/01/12 03:53:34;;;;;;;13.93;3.17;;;9.40;99.90;;;;;;4127499;28;20043;-70
2023/01/12 03:55:36;;;;;;;12.48;2.95;;;9.40;99.90;;;;;;4146148;28;20080;-70
2023/01/12 03:57:38;;;;;;;10.18;2.08;;;9.40;99.90;;;;;;4150921;28;20740;-70
2023/01/12 03:59:40;;;;;;;9.38;2.53;;;9.40;99.90;;;;;;4145770;28;20041;-70
2023/01/12 04:01:42;;;;;;;10.95;2.17;;;9.40;99.90;;;;;;4151108;28;20629;-70
2023/01/12 04:03:42;;;;;;;12.43;2.30;;;9.40;99.90;;;;;;4145996;28;20101;-69
2023/01/12 04:05:44;;;;;;;14.18;2.85;;;9.40;99.90;;;;;;4144346;28;20127;-70
2023/01/12 04:07:45;;;;;;;10.80;3.17;;;9.40;99.90;;;;;;4148580;28;20045;-69
2023/01/12 04:09:45;;;;;;;18.23;3.13;;;9.40;99.90;;;;;;4144941;28;20489;-69
2023/01/12 04:14:05;;;;;;;15.27;3.00;;;9.50;99.90;;;;;;4144566;28;20033;-71
2023/01/12 04:16:06;;;;;;;12.82;2.92;;;9.40;99.90;;;;;;4121152;28;20592;-70
2023/01/12 04:18:08;;;;;;;15.95;2.53;;;9.40;99.90;;;;;;4148009;28;20061;-70
2023/01/12 04:20:09;;;;;;;11.10;3.13;;;9.50;99.90;;;;;;4145765;28;20513;-70
2023/01/12 04:24:33;;;;;;;;;;;9.40;99.90;;;;;;4142697;28;20473;-70
2023/01/12 04:26:34;;;;;;;11.20;2.35;;;9.40;99.90;;;;;;4138427;28;19924;-70
2023/01/12 04:28:34;;;;;;;13.30;2.92;;;9.40;99.90;;;;;;4146974;28;20033;-70
2023/01/12 04:30:35;;;;;;;9.35;2.50;;;9.40;99.90;;;;;;4148410;28;20026;-70
2023/01/12 04:32:35;;;;;;;18.73;2.63;;;9.40;99.90;;;;;;4151143;28;20103;-69
2023/01/12 04:34:37;;;;;;;12.65;2.72;;;9.40;99.90;;;;;;4145579;28;20038;-70
2023/01/12 04:36:41;;;;;;;11.35;2.22;;;9.40;99.90;;;;;;4143527;28;20084;-69
2023/01/12 04:38:42;;;;;;;12.55;2.63;;;9.30;99.90;;;;;;4146158;28;20029;-68
2023/01/12 04:40:42;;;;;;;10.95;2.33;;;9.30;99.90;;;;;;4117057;28;20038;-69
2023/01/12 04:43:09;;;;;;;12.48;2.20;;;9.30;99.90;;;;;;4153229;28;20481;-69
2023/01/12 04:45:10;;;;;;;10.38;2.25;;;9.30;99.90;;;;;;4141788;28;20114;-71
2023/01/12 04:47:11;;;;;;;12.40;2.38;;;9.30;99.90;;;;;;4141301;28;20038;-70
2023/01/12 04:49:11;;;;;;;12.27;2.10;;;9.30;99.90;;;;;;4141772;28;20394;-70
2023/01/12 04:51:12;;;;;;;13.45;2.40;;;9.30;99.90;;;;;;4137648;28;20037;-70
2023/01/12 04:53:13;;;;;;;12.75;2.45;;;9.30;99.90;;;;;;4140951;28;20026;-69
2023/01/12 04:55:13;;;;;;;14.20;2.55;;;9.30;99.90;;;;;;4140851;28;20421;-70
2023/01/12 04:57:14;;;;;;;10.52;2.40;;;9.30;99.90;;;;;;4142515;28;20076;-70
2023/01/12 04:59:14;;;;;;;15.80;2.55;;;9.30;99.90;;;;;;4123334;28;20026;-69
2023/01/12 05:01:17;;;;;;;9.65;2.17;;;9.30;99.90;;;;;;4139787;28;20508;-70
2023/01/12 05:03:18;;;;;;;8.65;1.77;;;9.30;99.90;;;;;;4142423;28;20512;-70
2023/01/12 05:05:18;;;;;;;12.55;2.33;;;9.30;99.90;;;;;;4137818;28;20040;-70
2023/01/12 05:07:19;;;;;;;8.98;2.10;;;9.30;99.90;;;;;;4144987;28;20051;-70
2023/01/12 05:11:38;;;;;;;10.82;2.03;;;9.30;99.90;;;;;;4137730;28;20030;-70
2023/01/12 05:13:39;;;;;;;10.15;2.30;;;9.30;99.90;;;;;;4138466;28;20092;-69
2023/01/12 05:15:40;;;;;;;7.85;1.73;;;9.30;99.90;;;;;;4137905;28;20080;-70
2023/01/12 05:17:40;;;;;;;12.25;2.78;;;9.30;99.90;;;;;;4140974;28;20031;-70
2023/01/12 05:19:41;;;;;;;8.80;2.15;;;9.30;99.90;;;;;;4135906;28;20031;-70
2023/01/12 05:21:42;;;;;;;9.60;2.45;;;9.30;99.90;;;;;;4136845;28;20096;-69
2023/01/12 05:23:43;;;;;;;9.25;1.92;;;9.30;99.90;;;;;;4136118;28;20034;-69
2023/01/12 05:25:44;;;;;;;12.10;2.38;;;9.20;99.90;;;;;;4138270;28;20034;-70
2023/01/12 05:27:45;;;;;;;9.85;2.25;;;9.20;99.90;;;;;;4140694;28;20485;-70
2023/01/12 05:29:45;;;;;;;7.65;2.10;;;9.20;99.90;;;;;;4139950;28;20038;-70
2023/01/12 05:31:46;;;;;;;11.95;2.30;;;9.20;99.90;;;;;;4137883;28;20042;-71
2023/01/12 05:33:47;;;;;;;7.00;2.03;;;9.30;99.90;;;;;;4124832;28;20039;-71
2023/01/12 05:35:48;;;;;;;8.90;2.00;;;9.30;99.90;;;;;;4137398;28;20037;-70
2023/01/12 05:37:48;;;;;;;9.27;1.98;;;9.30;99.90;;;;;;4139626;28;20041;-70
2023/01/12 05:39:49;;;;;;;8.90;1.80;;;9.20;99.90;;;;;;4141558;28;20386;-70
2023/01/12 05:44:09;;;;;;;8.02;2.00;;;9.30;99.90;;;;;;4142476;28;20093;-70
2023/01/12 05:46:09;;;;;;;10.25;2.38;;;9.30;99.90;;;;;;4137096;28;20034;-70
2023/01/12 05:48:10;;;;;;;11.15;2.40;;;9.20;99.90;;;;;;4139606;28;20091;-70
2023/01/12 05:50:11;;;;;;;8.15;2.25;;;9.20;99.90;;;;;;4139599;28;20045;-70
2023/01/12 05:52:12;;;;;;;12.02;2.70;;;9.20;99.90;;;;;;4139179;28;20034;-71
2023/01/12 05:54:12;;;;;;;14.25;2.50;;;9.20;99.90;;;;;;4139860;28;20327;-70
2023/01/12 05:56:24;;;;;;;10.43;1.77;;;9.30;99.90;;;;;;4141010;28;20044;-70
2023/01/12 05:58:25;;;;;;;10.93;2.03;;;9.20;99.90;;;;;;4141909;28;20034;-70
2023/01/12 06:00:26;;;;;;;10.18;2.45;;;9.20;99.90;;;;;;4144211;28;20493;-70
2023/01/12 06:02:27;;;;;;;11.80;2.55;;;9.20;99.90;;;;;;4141324;28;20472;-70
2023/01/12 06:04:28;;;;;;;9.52;2.45;;;9.20;99.90;;;;;;4147476;28;20125;-68
2023/01/12 06:06:30;;;;;;;10.23;2.00;;;9.20;99.90;;;;;;4143338;28;20045;-69
2023/01/12 06:08:30;;;;;;;10.52;2.40;;;9.20;99.90;;;;;;4144809;28;20060;-69
2023/01/12 06:10:33;;;;;;;8.35;2.20;;;9.20;99.90;;;;;;4143239;28;20131;-68
2023/01/12 06:14:52;;;;;;;10.35;1.77;;;9.20;99.90;;;;;;4131492;28;20050;-68
2023/01/12 06:16:53;;;;;;;12.43;2.63;;;9.20;99.90;;;;;;4131157;28;20828;-70
2023/01/12 06:18:54;;;;;;;12.82;2.45;;;9.20;99.90;;;;;;4133562;28;20077;-71
2023/01/12 06:20:58;;;;;;;9.60;1.90;;;9.20;99.90;;;;;;4135797;28;20072;-72
2023/01/12 06:23:01;;;;;;;10.98;2.38;;;9.20;99.90;;;;;;4134553;28;20443;-71
2023/01/12 06:25:01;;;;;;;9.88;2.03;;;9.20;99.90;;;;;;4131238;28;20031;-69
2023/01/12 06:27:02;;;;;;;11.15;2.30;;;9.20;99.90;;;;;;4130230;28;20070;-69
2023/01/12 06:29:05;;;;;;;8.77;2.08;;;9.20;99.90;;;;;;4130161;28;20385;-70
2023/01/12 06:31:08;;;;;;;13.43;2.35;;;9.20;99.90;;;;;;4129303;28;22218;-71
2023/01/12 06:33:09;;;;;;;12.68;2.05;;;9.20;99.90;;;;;;4131646;28;20109;-71
2023/01/12 06:35:10;;;;;;;12.25;2.33;;;9.20;99.90;;;;;;4129610;28;20489;-72
2023/01/12 06:37:11;;;;;;;8.52;1.80;;;9.20;99.90;;;;;;4130339;28;20030;-70
2023/01/12 06:39:12;;;;;;;6.82;1.90;;;9.30;99.90;;;;;;4137828;28;20374;-70
2023/01/12 06:43:32;;;;;;;6.88;2.08;;;9.30;99.90;;;;;;4135035;28;20030;-70
2023/01/12 06:45:33;;;;;;;17.48;2.53;;;9.30;99.90;;;;;;4130462;28;20044;-70
2023/01/12 06:47:42;;;;;;;8.00;1.95;;;9.30;99.90;;;;;;4132871;28;20036;-70
2023/01/12 06:49:42;;;;;;;8.30;2.30;;;9.30;99.90;;;;;;4129959;28;20146;-70
2023/01/12 06:51:43;;;;;;;10.20;2.20;;;9.30;99.90;;;;;;4136032;28;20047;-70
2023/01/12 06:53:44;;;;;;;9.95;1.98;;;9.30;99.90;;;;;;4129991;28;20037;-71
2023/01/12 06:55:48;;;;;;;11.07;2.22;;;9.30;99.90;;;;;;4132911;28;20038;-70
2023/01/12 06:57:49;;;;;;;6.90;2.00;;;9.30;99.90;;;;;;4135685;28;20524;-70
2023/01/12 06:59:49;;;;;;;7.72;2.00;;;9.30;99.90;;;;;;4139072;28;20133;-70
2023/01/12 07:01:50;;;;;;;12.52;2.63;;;9.30;99.90;;;;;;4135389;28;20056;-71
2023/01/12 07:03:51;;;;;;;6.70;1.98;;;9.30;99.90;;;;;;4131245;28;20054;-71
2023/01/12 07:05:51;;;;;;;9.52;2.22;;;9.40;99.90;;;;;;4132531;28;20038;-70
2023/01/12 07:07:58;;;;;;;7.15;1.58;;;9.40;99.90;;;;;;4131422;28;20552;-71
2023/01/12 07:09:58;;;;;;;9.80;2.13;;;9.40;99.90;;;;;;4129814;28;20516;-70
2023/01/12 07:11:59;;;;;;;7.15;1.95;;;9.40;99.90;;;;;;4131879;28;20398;-71
2023/01/12 07:13:59;;;;;;;11.02;2.33;;;9.40;99.90;;;;;;4135055;28;20049;-71
2023/01/12 07:16:00;;;;;;;9.05;1.85;;;9.40;99.90;;;;;;4129260;28;20034;-71
2023/01/12 07:18:01;;;;;;;6.95;1.63;;;9.40;99.90;;;;;;4131869;28;20277;-70
2023/01/12 07:20:02;;;;;;;6.32;1.80;;;9.40;99.90;;;;;;4140045;28;20041;-71
2023/01/12 07:22:02;;;;;;;7.45;1.65;;;9.50;99.90;;;;;;4129203;28;20034;-71
2023/01/12 07:24:03;;;;;;;10.15;2.15;;;9.50;99.90;;;;;;4142489;28;20034;-76
2023/01/12 07:26:04;;;;;;;7.07;2.10;;;9.50;99.90;;;;;;4143475;28;20492;-68
2023/01/12 07:28:04;;;;;;;8.23;2.08;;;9.50;99.90;;;;;;4145862;28;20058;-73
2023/01/12 07:30:06;;;;;;;11.65;2.08;;;9.50;99.90;;;;;;4145178;28;20053;-72
2023/01/12 07:32:06;;;;;;;7.88;1.83;;;9.60;99.90;;;;;;4145345;28;20030;-73
2023/01/12 07:34:07;;;;;;;6.35;1.77;;;9.60;99.90;;;;;;4145322;28;20033;-73
2023/01/12 07:36:07;;;;;;;4.68;1.45;;;9.60;99.90;;;;;;4134563;28;20486;-75
2023/01/12 07:38:09;;;;;;;5.75;1.40;;;9.60;99.90;;;;;;4132141;28;20041;-72
2023/01/12 07:40:10;;;;;;;5.85;1.38;;;9.60;99.90;;;;;;4130937;28;20040;-73
2023/01/12 07:42:23;;;;;;;3.83;1.35;;;9.60;99.90;;;;;;4128375;28;20120;-73
2023/01/12 07:44:23;;;;;;;3.88;1.33;;;9.60;99.90;;;;;;4134012;28;20896;-75
2023/01/12 07:46:24;;;;;;;6.72;1.60;;;9.60;99.90;;;;;;4130854;28;20046;-72
2023/01/12 07:48:26;;;;;;;5.28;1.33;;;9.60;99.90;;;;;;4132611;28;20448;-74
2023/01/12 07:50:27;;;;;;;7.60;1.52;;;9.70;99.90;;;;;;4130460;28;20041;-74
2023/01/12 07:52:28;;;;;;;7.72;1.48;;;9.70;99.90;;;;;;4132360;28;20449;-74
2023/01/12 07:54:29;;;;;;;10.38;1.67;;;9.70;99.90;;;;;;4128450;28;20038;-74
2023/01/12 07:56:29;;;;;;;4.00;1.17;;;9.70;99.90;;;;;;4120996;28;20429;-72
2023/01/12 07:58:30;;;;;;;5.15;1.17;;;9.70;99.90;;;;;;4129141;28;20045;-75
2023/01/12 08:00:31;;;;;;;11.57;2.03;;;9.70;99.90;;;;;;4112227;28;20070;-74
2023/01/12 08:02:31;;;;;;;7.47;1.45;;;9.70;99.90;;;;;;4128206;28;20045;-75
2023/01/12 08:04:32;;;;;;;4.38;0.90;;;9.80;99.90;;;;;;4131258;28;20034;-74
2023/01/12 08:06:34;;;;;;;5.55;1.33;;;9.80;99.90;;;;;;4132240;28;20034;-73
2023/01/12 08:08:35;;;;;;;3.28;1.30;;;9.80;99.90;;;;;;4133132;28;20037;-71
2023/01/12 08:10:35;;;;;;;4.72;1.17;;;9.80;99.90;;;;;;4128780;28;20482;-73
2023/01/12 08:12:36;;;;;;;5.53;1.20;;;9.80;99.90;;;;;;4106461;28;20045;-71
2023/01/12 08:14:39;;;;;;;7.13;1.35;;;9.90;99.90;;;;;;4081879;28;20088;-65
2023/01/12 08:16:45;;;;;;;7.20;1.35;;;9.90;99.90;;;;;;4104756;28;20034;-74
2023/01/12 08:18:58;;;;;;;3.65;0.90;;;9.80;99.90;;;;;;4099499;28;20038;-73
2023/01/12 08:20:59;;;;;;;;;;;9.90;99.90;;;;;;4103633;28;20538;-73
2023/01/12 08:23:09;;;;;;;4.03;0.98;;;9.90;99.90;;;;;;4085387;28;20369;-75
2023/01/12 08:25:13;;;;;;;4.22;1.05;;;9.90;99.90;;;;;;4096956;28;20701;-74
2023/01/12 08:27:16;;;;;;;8.85;1.33;;;9.90;99.90;;;;;;4102791;28;20030;-74
2023/01/12 08:29:22;;;;;;;5.20;1.30;;;9.90;99.90;;;;;;4098172;28;20687;-74
2023/01/12 08:31:24;;;;;;;5.32;1.27;;;9.90;99.90;;;;;;4113838;28;20506;-75
2023/01/12 08:33:25;;;;;;;6.53;1.27;;;9.90;99.90;;;;;;4110943;28;20045;-74
2023/01/12 08:35:28;;;;;;;6.47;1.40;;;9.90;99.90;;;;;;4094693;28;20447;-74
2023/01/12 08:37:31;;;;;;;4.32;1.40;;;10.00;99.90;;;;;;4102939;28;20506;-73
2023/01/12 08:39:34;;;;;;;5.45;1.48;;;10.00;99.90;;;;;;4097871;28;20299;-74
2023/01/12 08:41:36;;;;;;;4.35;1.30;;;10.00;99.90;;;;;;4084747;28;20149;-73
2023/01/12 08:45:56;;;;;;;5.65;1.35;;;10.00;99.90;;;;;;4101954;28;20045;-75
2023/01/12 08:47:56;;;;;;;4.25;1.00;;;10.10;99.90;;;;;;4099082;28;20848;-74
2023/01/12 08:49:59;;;;;;;4.30;0.98;;;10.00;99.90;;;;;;4112865;28;20034;-73
2023/01/12 08:51:59;;;;;;;5.53;1.50;;;10.10;99.90;;;;;;4110982;28;20140;-74
2023/01/12 08:54:03;;;;;;;4.93;1.30;;;10.10;99.90;;;;;;4099895;28;20130;-74
2023/01/12 08:56:04;;;;;;;4.63;1.40;;;10.00;99.90;;;;;;4097461;28;20044;-75
2023/01/12 08:58:05;;;;;;;3.83;1.33;;;10.10;99.90;;;;;;4110461;28;20489;-73
2023/01/12 09:00:06;;;;;;;4.57;0.93;;;10.10;99.90;;;;;;4107469;28;20364;-74
2023/01/12 09:02:10;;;;;;;4.07;0.98;;;10.10;99.90;;;;;;4111165;28;20065;-73
2023/01/12 09:04:11;;;;;;;3.03;1.02;;;10.10;99.90;;;;;;4092148;28;20560;-73
2023/01/12 09:06:16;;;;;;;5.45;0.98;;;10.10;99.90;;;;;;4102815;28;20267;-71
2023/01/12 09:08:16;;;;;;;3.70;1.02;;;10.20;99.90;;;;;;4107585;28;20176;-73
2023/01/12 09:10:17;;;;;;;2.83;1.10;;;10.20;99.90;;;;;;4098092;28;20101;-74
2023/01/12 09:12:18;;;;;;;1.52;0.52;;;10.20;99.90;;;;;;4114050;28;20038;-76
2023/01/12 09:14:18;;;;;;;3.42;1.05;;;10.20;99.90;;;;;;4105032;28;20331;-74
2023/01/12 09:16:19;;;;;;;7.22;1.27;;;10.20;99.90;;;;;;4129122;28;20042;-71
2023/01/12 09:18:20;;;;;;;4.43;1.20;;;10.20;99.90;;;;;;4129864;28;20861;-73
2023/01/12 09:20:21;;;;;;;2.80;1.05;;;10.20;99.90;;;;;;4123041;28;20490;-73
2023/01/12 09:22:22;;;;;;;5.20;1.00;;;10.20;99.90;;;;;;4120920;28;20045;-73
2023/01/12 09:24:23;;;;;;;2.70;0.88;;;10.20;99.90;;;;;;4126542;28;20124;-73
2023/01/12 09:26:32;;;;;;;4.40;0.88;;;10.30;99.90;;;;;;4108741;28;20069;-74
2023/01/12 09:28:34;;;;;;;4.18;1.33;;;10.20;99.90;;;;;;4126725;28;20415;-72
2023/01/12 09:30:34;;;;;;;3.40;0.87;;;10.20;99.90;;;;;;4131751;28;20036;-74
2023/01/12 09:32:35;;;;;;;4.07;1.08;;;10.30;99.90;;;;;;4127074;28;20049;-75
2023/01/12 09:34:36;;;;;;;3.03;0.90;;;10.20;99.90;;;;;;4121344;28;20049;-74
2023/01/12 09:36:38;;;;;;;2.97;1.00;;;10.30;99.90;;;;;;4130436;28;20096;-74
2023/01/12 09:38:40;;;;;;;3.10;1.17;;;10.30;99.90;;;;;;4133054;28;20033;-75
2023/01/12 09:40:43;;;;;;;2.17;1.10;;;10.30;99.90;;;;;;4128384;28;20030;-76
2023/01/12 09:47:52;;;;;;;2.63;0.80;;;10.40;99.90;;;;;;4128853;28;20062;-76
2023/01/12 09:49:59;;;;;;;4.22;0.88;;;10.40;99.90;;;;;;4132696;28;20161;-75
2023/01/12 09:52:14;;;;;;;6.35;0.88;;;10.40;99.90;;;;;;4130528;28;21102;-73
2023/01/12 09:54:16;;;;;;;2.58;0.73;;;10.40;99.90;;;;;;4128261;28;20525;-75
2023/01/12 09:56:19;;;;;;;3.55;0.93;;;10.40;99.90;;;;;;4129879;28;20045;-76
2023/01/12 09:58:33;;;;;;;3.45;0.85;;;10.50;99.90;;;;;;4128604;28;20038;-75
2023/01/12 10:00:34;;;;;;;3.05;0.82;;;10.50;99.90;;;;;;4132040;28;20064;-74
2023/01/12 10:02:38;;;;;;;3.95;1.02;;;10.50;99.90;;;;;;4131207;28;20057;-73
2023/01/12 10:04:39;;;;;;;3.60;1.10;;;10.50;99.90;;;;;;4131340;28;20031;-74
2023/01/12 10:06:43;;;;;;;3.22;1.00;;;10.50;99.90;;;;;;4128956;28;20038;-74
2023/01/12 10:08:48;;;;;;;4.25;1.13;;;10.50;99.90;;;;;;4131799;28;20029;-74
2023/01/12 10:11:02;;;;;;;4.90;1.23;;;10.50;99.90;;;;;;4132873;28;20034;-74
2023/01/12 10:13:07;;;;;;;3.38;1.08;;;10.60;99.90;;;;;;4126343;28;20041;-75
2023/01/12 10:15:28;;;;;;;3.97;1.13;;;10.50;99.90;;;;;;4130485;28;20069;-76
2023/01/12 10:17:48;;;;;;;4.22;1.00;;;10.50;99.90;;;;;;4133223;28;20045;-75
2023/01/12 10:20:10;;;;;;;6.50;1.15;;;10.60;99.90;;;;;;4134745;28;21692;-75
2023/01/12 10:22:38;;;;;;;3.97;1.08;;;10.60;99.90;;;;;;4125499;28;20125;-74
2023/01/12 10:24:53;;;;;;;4.05;0.93;;;10.60;99.90;;;;;;4168257;28;20586;-69
2023/01/12 10:27:01;;;;;;;4.50;1.00;;;10.60;99.90;;;;;;4161364;28;20047;-70
2023/01/12 10:29:01;;;;;;;4.35;1.02;;;10.60;99.90;;;;;;4143754;28;20575;-69
2023/01/12 10:31:05;;;;;;;6.30;1.00;;;10.70;99.90;;;;;;4165802;28;20397;-69
2023/01/12 10:33:23;;;;;;;3.38;0.95;;;10.70;99.90;;;;;;4164269;28;20033;-68
2023/01/12 10:35:25;;;;;;;4.25;1.10;;;10.70;99.90;;;;;;4158478;28;20153;-70
2023/01/12 10:37:26;;;;;;;4.00;0.80;;;10.70;99.90;;;;;;4150415;28;20044;-70
2023/01/12 10:39:42;;;;;;;3.80;1.05;;;10.70;99.90;;;;;;4166412;28;20506;-70
2023/01/12 10:41:43;;;;;;;4.05;1.00;;;10.70;99.90;;;;;;4146967;28;20033;-70
2023/01/12 10:43:58;;;;;;;4.93;0.95;;;10.70;99.90;;;;;;4145245;28;20438;-70
2023/01/12 10:46:16;;;;;;;2.25;0.90;;;10.70;99.90;;;;;;4150032;28;20121;-69
2023/01/12 10:48:21;;;;;;;4.25;1.20;;;10.70;99.90;;;;;;4165797;28;20505;-70
2023/01/12 10:50:34;;;;;;;5.30;1.15;;;10.70;99.90;;;;;;4162460;28;20064;-70
2023/01/12 10:52:39;;;;;;;3.53;1.02;;;10.70;99.90;;;;;;4165076;28;20135;-69
2023/01/12 10:54:46;;;;;;;4.55;1.15;;;10.70;99.90;;;;;;4165034;28;20580;-70
2023/01/12 10:57:20;;;;;;;4.50;1.00;;;10.70;99.90;;;;;;4167317;28;20060;-70
2023/01/12 10:59:28;;;;;;;3.85;1.05;;;10.70;99.90;;;;;;4164202;28;20041;-70
2023/01/12 11:02:04;;;;;;;4.45;1.25;;;10.70;99.90;;;;;;4165767;28;20430;-70
2023/01/12 11:04:05;;;;;;;3.85;0.75;;;10.70;99.90;;;;;;4133417;28;20037;-70
2023/01/12 11:06:27;;;;;;;3.42;1.05;;;10.70;99.90;;;;;;4138065;28;20053;-70
2023/01/12 11:08:28;;;;;;;6.57;1.30;;;10.80;99.90;;;;;;4165020;28;20055;-71
2023/01/12 11:10:37;;;;;;;2.42;0.60;;;10.80;99.90;;;;;;4166206;28;20061;-70
2023/01/12 11:12:39;;;;;;;5.20;1.15;;;10.80;99.90;;;;;;4159312;28;21023;-69
2023/01/12 11:14:41;;;;;;;4.07;0.82;;;10.80;99.90;;;;;;4161183;28;20064;-71
2023/01/12 11:16:48;;;;;;;2.57;0.70;;;10.80;99.90;;;;;;4137386;28;20041;-70
2023/01/12 11:19:14;;;;;;;4.05;0.90;;;10.80;99.90;;;;;;4163665;28;20449;-70
2023/01/12 11:21:18;;;;;;;1.67;0.65;;;10.90;99.90;;;;;;4159591;28;20037;-70
2023/01/12 11:23:48;;;;;;;3.33;1.00;;;10.90;99.90;;;;;;4142965;28;20049;-70
2023/01/12 11:25:52;;;;;;;2.45;0.80;;;10.90;99.90;;;;;;4162207;28;20083;-71
2023/01/12 11:28:28;;;;;;;8.88;1.42;;;10.90;99.90;;;;;;4155492;28;20116;-71